Time;durP1;ratioP1;P1;durP2;ratioP2;P2;SDS_P1;SDS_P2;PMS_P1;PMS_P2;Temp;Humidity;BMP_temperature;BMP_pressure;BME280_temperature;BME280_humidity;BME280_pressure;Samples;Min_cycle;Max_cycle;Signal;HPM_P1;HPM_P2
2023/03/27 00:02:27;;;;;;;7.97;1.88;;;8.10;99.90;;;;;;5055077;28;20228;-76
2023/03/27 00:04:54;;;;;;;5.20;1.70;;;8.10;99.90;;;;;;5052744;28;20233;-78
2023/03/27 00:07:22;;;;;;;5.00;2.10;;;8.10;99.90;;;;;;5055824;28;20614;-78
2023/03/27 00:09:49;;;;;;;3.65;1.90;;;8.00;99.90;;;;;;5054887;28;20302;-75
2023/03/27 00:12:17;;;;;;;6.50;1.88;;;7.90;99.90;;;;;;5055187;28;20255;-76
2023/03/27 00:14:44;;;;;;;3.78;1.70;;;7.90;99.90;;;;;;5055249;28;20233;-78
2023/03/27 00:17:12;;;;;;;4.40;2.13;;;7.90;99.90;;;;;;5054390;28;20240;-77
2023/03/27 00:19:41;;;;;;;2.92;1.98;;;7.80;99.90;;;;;;5057312;28;20275;-78
2023/03/27 00:22:08;;;;;;;3.92;2.05;;;7.80;99.90;;;;;;5068832;28;20251;-79
2023/03/27 00:24:35;;;;;;;6.13;2.10;;;7.80;99.90;;;;;;5068791;28;20243;-79
2023/03/27 00:27:02;;;;;;;6.80;2.85;;;7.80;99.90;;;;;;5065753;28;20232;-76
2023/03/27 00:29:30;;;;;;;4.40;2.05;;;7.80;99.90;;;;;;5064174;28;20236;-78
2023/03/27 00:31:57;;;;;;;5.50;2.58;;;7.80;99.90;;;;;;5066680;28;20225;-78
2023/03/27 00:34:24;;;;;;;9.38;3.35;;;7.90;99.90;;;;;;5064958;28;20239;-78
2023/03/27 00:36:52;;;;;;;3.72;2.58;;;7.90;99.90;;;;;;5054360;28;20221;-78
2023/03/27 00:39:20;;;;;;;4.40;2.28;;;7.90;99.90;;;;;;5054756;28;20233;-77
2023/03/27 00:41:48;;;;;;;7.47;2.85;;;7.90;99.90;;;;;;5055575;28;20236;-79
2023/03/27 00:44:33;;;;;;;3.72;2.22;;;8.00;99.90;;;;;;5053989;28;20232;-79
2023/03/27 00:47:02;;;;;;;2.42;1.90;;;8.00;99.90;;;;;;5054276;28;20225;-76
2023/03/27 00:49:33;;;;;;;8.35;2.55;;;8.00;99.90;;;;;;5054945;28;20619;-79
2023/03/27 00:52:03;;;;;;;4.60;2.30;;;8.00;99.90;;;;;;5054891;28;20232;-79
2023/03/27 00:54:35;;;;;;;4.40;2.10;;;8.00;99.90;;;;;;5055161;28;20235;-79
2023/03/27 00:57:06;;;;;;;6.03;2.65;;;8.00;99.90;;;;;;5054764;28;20325;-76
2023/03/27 00:59:37;;;;;;;2.33;1.83;;;8.00;99.90;;;;;;5055305;28;20263;-79
2023/03/27 01:02:06;;;;;;;2.58;1.88;;;8.00;99.90;;;;;;5054835;28;20231;-79
2023/03/27 01:04:34;;;;;;;2.88;2.47;;;7.90;99.90;;;;;;5055117;28;20324;-79
2023/03/27 01:07:06;;;;;;;5.47;2.95;;;8.00;99.90;;;;;;5054983;28;20231;-78
2023/03/27 01:09:33;;;;;;;4.10;2.20;;;8.00;99.90;;;;;;5054909;28;20236;-76
2023/03/27 01:12:10;;;;;;;2.05;1.85;;;8.00;99.90;;;;;;5054508;28;20252;-79
2023/03/27 01:14:44;;;;;;;3.25;2.08;;;8.00;99.90;;;;;;5054636;28;20713;-76
2023/03/27 01:17:28;;;;;;;3.95;1.85;;;7.90;99.90;;;;;;5053128;28;20308;-76
2023/03/27 01:20:15;;;;;;;4.00;2.00;;;7.90;99.90;;;;;;5053960;28;20256;-79
2023/03/27 01:23:09;;;;;;;3.20;1.80;;;7.80;99.90;;;;;;5053854;28;20256;-76
2023/03/27 01:26:11;;;;;;;5.40;2.42;;;7.80;99.90;;;;;;5055070;28;20251;-77
2023/03/27 01:28:53;;;;;;;3.83;1.90;;;7.70;99.90;;;;;;5054823;28;20239;-77
2023/03/27 01:31:44;;;;;;;4.90;2.25;;;7.70;99.90;;;;;;5052555;28;20263;-77
2023/03/27 01:34:45;;;;;;;4.55;2.20;;;7.70;99.90;;;;;;5055464;28;20219;-78
2023/03/27 01:37:34;;;;;;;1.70;1.50;;;7.60;99.90;;;;;;5058437;28;20223;-79
2023/03/27 01:40:06;;;;;;;3.03;1.77;;;7.60;99.90;;;;;;5058563;28;20229;-79
2023/03/27 01:42:38;;;;;;;4.10;1.67;;;7.50;99.90;;;;;;5054878;28;20220;-76
2023/03/27 01:45:09;;;;;;;4.53;1.80;;;7.50;99.90;;;;;;5056626;28;20232;-76
2023/03/27 01:47:43;;;;;;;2.03;1.67;;;7.50;99.90;;;;;;5055617;28;20221;-76
2023/03/27 01:50:18;;;;;;;7.55;2.38;;;7.40;99.90;;;;;;5054513;28;20228;-76
2023/03/27 01:52:52;;;;;;;4.00;1.90;;;7.40;99.90;;;;;;5053978;28;20234;-76
2023/03/27 01:55:25;;;;;;;3.25;2.10;;;7.40;99.90;;;;;;5053655;28;20220;-76
2023/03/27 01:58:02;;;;;;;1.67;1.30;;;7.40;99.90;;;;;;5054992;28;20228;-79
2023/03/27 02:00:30;;;;;;;1.98;1.48;;;7.40;99.90;;;;;;5054492;28;20564;-78
2023/03/27 02:03:02;;;;;;;2.08;1.38;;;7.30;99.90;;;;;;5054254;28;20220;-79
2023/03/27 02:05:36;;;;;;;2.00;1.80;;;7.30;99.90;;;;;;5054550;28;20536;-78
2023/03/27 02:08:10;;;;;;;4.72;1.67;;;7.30;99.90;;;;;;5054682;28;20260;-76
2023/03/27 02:10:42;;;;;;;3.45;1.48;;;7.40;99.90;;;;;;5056273;28;20228;-78
2023/03/27 02:13:17;;;;;;;4.35;1.88;;;7.30;99.90;;;;;;5056354;28;20353;-77
2023/03/27 02:15:45;;;;;;;3.47;2.15;;;7.30;99.90;;;;;;5055745;28;20251;-79
2023/03/27 02:18:17;;;;;;;2.00;1.70;;;7.30;99.90;;;;;;5054428;28;20220;-76
2023/03/27 02:20:45;;;;;;;1.58;1.48;;;7.20;99.90;;;;;;5055526;28;20228;-78
2023/03/27 02:23:13;;;;;;;3.35;2.20;;;7.20;99.90;;;;;;5057142;28;20259;-76
2023/03/27 02:25:44;;;;;;;2.97;1.50;;;7.20;99.90;;;;;;5057739;28;20638;-78
2023/03/27 02:28:34;;;;;;;1.70;1.60;;;7.20;99.90;;;;;;5059558;28;20228;-78
2023/03/27 02:31:11;;;;;;;2.85;2.00;;;7.20;99.90;;;;;;5053268;28;20278;-77
2023/03/27 02:33:48;;;;;;;2.13;1.90;;;7.10;99.90;;;;;;5052608;28;20219;-76
2023/03/27 02:36:27;;;;;;;4.07;2.10;;;7.10;99.90;;;;;;5051980;28;20216;-78
2023/03/27 02:39:01;;;;;;;1.75;1.60;;;7.10;99.90;;;;;;5051892;28;20248;-79
2023/03/27 02:41:36;;;;;;;2.13;1.55;;;7.00;99.90;;;;;;5052377;28;20291;-79
2023/03/27 02:44:11;;;;;;;2.78;1.95;;;7.10;99.90;;;;;;5051650;28;20293;-77
2023/03/27 02:46:46;;;;;;;2.67;2.05;;;7.10;99.90;;;;;;5052127;28;20246;-77
2023/03/27 02:49:18;;;;;;;4.38;1.65;;;7.00;99.90;;;;;;5052080;28;20224;-76
2023/03/27 02:51:51;;;;;;;2.10;1.60;;;7.00;99.90;;;;;;5052214;28;20312;-79
2023/03/27 02:54:27;;;;;;;3.25;1.70;;;6.90;99.90;;;;;;5052077;28;20266;-76
2023/03/27 02:57:00;;;;;;;1.60;1.50;;;7.00;99.90;;;;;;5051716;28;20300;-79
2023/03/27 02:59:34;;;;;;;2.05;1.27;;;6.90;99.90;;;;;;5052099;28;20315;-78
2023/03/27 03:02:03;;;;;;;3.00;1.42;;;6.80;99.90;;;;;;5051888;28;20682;-79
2023/03/27 03:04:34;;;;;;;5.05;1.10;;;6.80;99.90;;;;;;5051882;28;20286;-77
2023/03/27 03:07:05;;;;;;;2.08;1.10;;;6.90;99.90;;;;;;5051353;28;20248;-76
2023/03/27 03:09:32;;;;;;;1.35;1.25;;;6.80;99.90;;;;;;5052393;28;20234;-78
2023/03/27 03:12:01;;;;;;;3.83;1.25;;;6.80;99.90;;;;;;5051757;28;20248;-79
2023/03/27 03:14:32;;;;;;;1.95;1.60;;;6.70;99.90;;;;;;5052185;28;20297;-76
2023/03/27 03:16:59;;;;;;;3.65;1.52;;;6.70;99.90;;;;;;5051573;28;20240;-76
2023/03/27 03:19:26;;;;;;;2.78;1.30;;;6.70;99.90;;;;;;5052428;28;20232;-79
2023/03/27 03:21:53;;;;;;;2.95;1.50;;;6.70;99.90;;;;;;5051956;28;20252;-78
2023/03/27 03:24:26;;;;;;;1.60;1.30;;;6.80;99.90;;;;;;5051087;28;20250;-76
2023/03/27 03:26:53;;;;;;;3.88;1.40;;;6.70;99.90;;;;;;5051366;28;20675;-79
2023/03/27 03:29:21;;;;;;;1.33;1.20;;;6.70;99.90;;;;;;5051389;28;20308;-79
2023/03/27 03:31:48;;;;;;;1.73;1.20;;;6.70;99.90;;;;;;5052041;28;20572;-76
2023/03/27 03:34:21;;;;;;;3.90;1.48;;;6.70;99.90;;;;;;5051820;28;20232;-79
2023/03/27 03:36:48;;;;;;;1.30;1.20;;;6.60;99.90;;;;;;5051868;28;20225;-78
2023/03/27 03:39:17;;;;;;;1.50;1.40;;;6.60;99.90;;;;;;5051230;28;20237;-77
2023/03/27 03:41:44;;;;;;;1.95;1.65;;;6.60;99.90;;;;;;5051948;28;20232;-79
2023/03/27 03:44:11;;;;;;;1.45;1.30;;;6.60;99.90;;;;;;5050933;28;20593;-76
2023/03/27 03:46:39;;;;;;;1.70;1.30;;;6.50;99.90;;;;;;5056322;28;20247;-76
2023/03/27 03:49:08;;;;;;;1.48;1.38;;;6.50;99.90;;;;;;5056489;28;20229;-79
2023/03/27 03:51:35;;;;;;;1.92;1.30;;;6.50;99.90;;;;;;5057559;28;20286;-78
2023/03/27 03:54:04;;;;;;;1.65;1.33;;;6.50;99.90;;;;;;5056839;28;20228;-76
2023/03/27 03:56:33;;;;;;;1.88;1.40;;;6.50;99.90;;;;;;5056290;28;20224;-80
2023/03/27 03:59:00;;;;;;;1.60;1.50;;;6.50;99.90;;;;;;5056268;28;20529;-79
2023/03/27 04:01:27;;;;;;;1.80;1.70;;;6.50;99.90;;;;;;5056620;28;20249;-79
2023/03/27 04:03:55;;;;;;;2.53;1.63;;;6.50;99.90;;;;;;5057086;28;20224;-80
2023/03/27 04:06:24;;;;;;;2.53;1.80;;;6.50;99.90;;;;;;5054943;28;20290;-76
2023/03/27 04:08:51;;;;;;;2.28;1.50;;;6.50;99.90;;;;;;5056813;28;20316;-77
2023/03/27 04:11:18;;;;;;;2.15;1.63;;;6.50;99.90;;;;;;5055361;28;20690;-76
2023/03/27 04:13:45;;;;;;;4.63;1.70;;;6.50;99.90;;;;;;5056539;28;20679;-78
2023/03/27 04:16:12;;;;;;;1.80;1.50;;;6.50;99.90;;;;;;5056595;28;20221;-79
2023/03/27 04:18:40;;;;;;;4.05;2.00;;;6.40;99.90;;;;;;5056284;28;20233;-77
2023/03/27 04:21:13;;;;;;;2.40;1.90;;;6.40;99.90;;;;;;5054851;28;20221;-77
2023/03/27 04:23:40;;;;;;;2.17;1.80;;;6.40;99.90;;;;;;5055390;28;20232;-76
2023/03/27 04:26:07;;;;;;;1.83;1.65;;;6.40;99.90;;;;;;5055435;28;20229;-76
2023/03/27 04:28:34;;;;;;;4.38;1.73;;;6.30;99.90;;;;;;5057021;28;20612;-76
2023/03/27 04:31:05;;;;;;;1.65;1.55;;;6.30;99.90;;;;;;5056991;28;20229;-78
2023/03/27 04:33:33;;;;;;;2.28;1.23;;;6.40;99.90;;;;;;5057274;28;20326;-78
2023/03/27 04:36:01;;;;;;;3.95;1.88;;;6.30;99.90;;;;;;5057800;28;20286;-76
2023/03/27 04:38:30;;;;;;;6.70;1.70;;;6.30;99.90;;;;;;5057683;28;20294;-76
2023/03/27 04:40:57;;;;;;;1.40;1.30;;;6.40;99.90;;;;;;5059617;28;20224;-79
2023/03/27 04:43:25;;;;;;;2.70;2.10;;;6.30;99.90;;;;;;5073826;28;20266;-78
2023/03/27 04:46:07;;;;;;;2.15;1.90;;;6.30;99.90;;;;;;5071623;28;20292;-79
2023/03/27 04:48:33;;;;;;;1.92;1.50;;;6.30;99.90;;;;;;5071910;28;20227;-77
2023/03/27 04:51:03;;;;;;;2.25;1.50;;;6.30;99.90;;;;;;5073350;28;20288;-78
2023/03/27 04:53:34;;;;;;;1.70;1.35;;;6.30;99.90;;;;;;5071071;28;20338;-79
2023/03/27 04:56:01;;;;;;;6.15;2.67;;;6.30;99.90;;;;;;5074387;28;20240;-77
2023/03/27 04:58:28;;;;;;;2.20;1.92;;;6.30;99.90;;;;;;5070345;28;20679;-76
2023/03/27 05:00:56;;;;;;;2.30;1.85;;;6.30;99.90;;;;;;5066341;28;20225;-79
2023/03/27 05:03:24;;;;;;;2.25;1.92;;;6.30;99.90;;;;;;5059544;28;20225;-76
2023/03/27 05:05:52;;;;;;;2.20;2.00;;;6.30;99.90;;;;;;5054454;28;20690;-76
2023/03/27 05:08:22;;;;;;;2.17;1.98;;;6.30;99.90;;;;;;5052829;28;20239;-78
2023/03/27 05:10:53;;;;;;;3.28;2.50;;;6.30;99.90;;;;;;5053422;28;20224;-79
2023/03/27 05:13:21;;;;;;;3.33;3.03;;;6.40;99.90;;;;;;5053187;28;20225;-79
2023/03/27 05:15:48;;;;;;;2.20;2.00;;;6.30;99.90;;;;;;5053986;28;20232;-77
2023/03/27 05:18:16;;;;;;;3.10;2.80;;;6.30;99.90;;;;;;5053305;28;20232;-76
2023/03/27 05:20:47;;;;;;;3.30;2.97;;;6.30;99.90;;;;;;5054183;28;20228;-78
2023/03/27 05:23:14;;;;;;;4.70;2.70;;;6.30;99.90;;;;;;5053742;28;20327;-77
2023/03/27 05:25:44;;;;;;;6.15;2.22;;;6.30;99.90;;;;;;5053911;28;20233;-79
2023/03/27 05:28:12;;;;;;;2.83;2.63;;;6.20;99.90;;;;;;5053813;28;20239;-79
2023/03/27 05:30:41;;;;;;;3.35;2.25;;;6.20;99.90;;;;;;5064905;28;20668;-79
2023/03/27 05:33:08;;;;;;;4.18;2.70;;;6.20;99.90;;;;;;5073690;28;20232;-76
2023/03/27 05:35:36;;;;;;;2.90;2.65;;;6.20;99.90;;;;;;5073816;28;20236;-76
2023/03/27 05:38:03;;;;;;;2.97;1.95;;;6.20;99.90;;;;;;5073574;28;20232;-76
2023/03/27 05:40:30;;;;;;;4.20;2.00;;;6.10;99.90;;;;;;5072685;28;20484;-78
2023/03/27 05:43:00;;;;;;;2.83;2.45;;;6.10;99.90;;;;;;5073471;28;20231;-76
2023/03/27 05:45:29;;;;;;;2.80;2.47;;;6.10;99.90;;;;;;5072762;28;20281;-76
2023/03/27 05:47:58;;;;;;;6.63;1.83;;;6.10;99.90;;;;;;5073396;28;20682;-76
2023/03/27 05:50:38;;;;;;;4.65;2.80;;;6.10;99.90;;;;;;5072696;28;20227;-78
2023/03/27 05:53:08;;;;;;;2.90;2.50;;;6.00;99.90;;;;;;5061089;28;20228;-76
2023/03/27 05:55:36;;;;;;;3.03;2.65;;;6.10;99.90;;;;;;5073004;28;20224;-76
2023/03/27 05:58:04;;;;;;;3.72;2.25;;;6.10;99.90;;;;;;5073097;28;20235;-77
2023/03/27 06:00:35;;;;;;;4.80;2.30;;;6.10;99.90;;;;;;5072533;28;20220;-76
2023/03/27 06:03:03;;;;;;;3.25;2.50;;;6.00;99.90;;;;;;5073036;28;20620;-76
2023/03/27 06:05:31;;;;;;;2.60;2.40;;;6.00;99.90;;;;;;5072415;28;20247;-77
2023/03/27 06:07:58;;;;;;;4.55;3.22;;;6.10;99.90;;;;;;5073120;28;20228;-76
2023/03/27 06:10:27;;;;;;;5.05;2.60;;;6.10;99.90;;;;;;5072196;28;20574;-77
2023/03/27 06:13:01;;;;;;;2.03;1.88;;;6.10;99.90;;;;;;5073166;28;20251;-76
2023/03/27 06:15:29;;;;;;;3.38;2.20;;;6.10;99.90;;;;;;5072579;28;20302;-76
2023/03/27 06:17:57;;;;;;;5.35;2.80;;;6.10;99.90;;;;;;5072892;28;20623;-76
2023/03/27 06:20:25;;;;;;;4.22;2.30;;;6.10;99.90;;;;;;5072782;28;20228;-76
2023/03/27 06:22:54;;;;;;;5.82;2.60;;;6.10;99.90;;;;;;5074269;28;20232;-76
2023/03/27 06:25:22;;;;;;;7.90;2.58;;;6.10;99.90;;;;;;5072358;28;20228;-77
2023/03/27 06:27:50;;;;;;;7.47;2.60;;;6.20;99.90;;;;;;5072318;28;20228;-76
2023/03/27 06:30:19;;;;;;;5.10;2.55;;;6.20;99.90;;;;;;5072317;28;20697;-76
2023/03/27 06:32:47;;;;;;;6.20;2.50;;;6.20;99.90;;;;;;5072849;28;20281;-76
2023/03/27 06:35:17;;;;;;;14.02;3.15;;;6.30;99.90;;;;;;5085573;28;20228;-76
2023/03/27 06:37:47;;;;;;;8.20;2.78;;;6.30;99.90;;;;;;5074078;28;20665;-76
2023/03/27 06:40:21;;;;;;;7.07;3.38;;;6.30;99.90;;;;;;5071411;28;20223;-76
2023/03/27 06:42:52;;;;;;;8.23;2.88;;;6.40;99.90;;;;;;5071594;28;20518;-76
2023/03/27 06:45:19;;;;;;;10.75;2.92;;;6.50;99.90;;;;;;5071499;28;20289;-76
2023/03/27 06:47:50;;;;;;;6.75;2.95;;;6.60;99.90;;;;;;5072013;28;20319;-76
2023/03/27 06:50:20;;;;;;;5.32;2.40;;;6.70;99.90;;;;;;5071770;28;20219;-77
2023/03/27 06:52:48;;;;;;;3.97;2.55;;;6.70;99.90;;;;;;5071867;28;20615;-77
2023/03/27 06:55:16;;;;;;;6.15;2.03;;;6.80;99.90;;;;;;5071272;28;20224;-76
2023/03/27 06:57:44;;;;;;;4.78;4.10;;;6.90;99.90;;;;;;5071882;28;20285;-76
2023/03/27 07:00:17;;;;;;;3.58;3.10;;;6.90;99.90;;;;;;5071477;28;20715;-77
2023/03/27 07:02:45;;;;;;;5.95;4.15;;;7.00;99.90;;;;;;5071818;28;20643;-75
2023/03/27 07:05:12;;;;;;;5.45;2.25;;;7.10;99.90;;;;;;5072004;28;20293;-76
2023/03/27 07:07:40;;;;;;;3.63;2.20;;;7.00;99.90;;;;;;5071392;28;20220;-78
2023/03/27 07:10:09;;;;;;;2.55;2.35;;;7.00;99.90;;;;;;5072190;28;20300;-78
2023/03/27 07:12:36;;;;;;;3.38;2.15;;;7.00;99.90;;;;;;5071198;28;20311;-78
2023/03/27 07:15:05;;;;;;;3.13;1.95;;;7.10;99.90;;;;;;5072185;28;20555;-78
2023/03/27 07:17:32;;;;;;;2.97;2.22;;;7.10;99.90;;;;;;5071421;28;20237;-78
2023/03/27 07:19:58;;;;;;;2.22;2.03;;;7.10;99.90;;;;;;5072139;28;20269;-78
2023/03/27 07:22:30;;;;;;;3.17;2.38;;;7.10;99.90;;;;;;5064912;28;20219;-79
2023/03/27 07:24:58;;;;;;;4.80;2.30;;;7.00;99.90;;;;;;5075687;28;20242;-77
2023/03/27 07:27:26;;;;;;;2.25;2.05;;;7.10;99.90;;;;;;5074715;28;20289;-77
2023/03/27 07:29:53;;;;;;;2.83;2.20;;;7.10;99.90;;;;;;5075543;28;20219;-76
2023/03/27 07:32:20;;;;;;;2.85;1.92;;;7.10;99.90;;;;;;5075800;28;20220;-78
2023/03/27 07:34:47;;;;;;;2.85;2.20;;;7.20;99.90;;;;;;5075016;28;20281;-78
2023/03/27 07:37:14;;;;;;;3.10;1.90;;;7.20;99.90;;;;;;5075806;28;20269;-77
2023/03/27 07:39:41;;;;;;;3.95;2.80;;;7.30;99.90;;;;;;5075095;28;20281;-78
2023/03/27 07:42:10;;;;;;;4.15;3.40;;;7.30;99.90;;;;;;5075789;28;20251;-77
2023/03/27 07:44:37;;;;;;;3.53;2.15;;;7.40;99.90;;;;;;5075045;28;20292;-78
2023/03/27 07:47:04;;;;;;;2.75;2.35;;;7.50;99.90;;;;;;5075633;28;20361;-78
2023/03/27 07:49:31;;;;;;;3.65;2.47;;;7.40;99.90;;;;;;5074980;28;20654;-78
2023/03/27 07:51:59;;;;;;;4.45;3.42;;;7.50;99.90;;;;;;5075455;28;20224;-78
2023/03/27 07:54:28;;;;;;;3.65;2.78;;;7.50;99.90;;;;;;5075661;28;20216;-78
2023/03/27 07:56:55;;;;;;;2.90;2.17;;;7.40;99.90;;;;;;5075198;28;20216;-78
2023/03/27 07:59:24;;;;;;;4.22;2.00;;;7.40;99.90;;;;;;5075508;28;20220;-78
2023/03/27 08:01:51;;;;;;;2.15;1.90;;;7.40;99.90;;;;;;5075160;28;20223;-78
2023/03/27 08:04:18;;;;;;;3.42;1.80;;;7.50;99.90;;;;;;5075169;28;20224;-78
2023/03/27 08:06:45;;;;;;;1.88;1.65;;;7.40;99.90;;;;;;5074899;28;20707;-77
2023/03/27 08:09:12;;;;;;;2.80;1.95;;;7.40;99.90;;;;;;5075503;28;20224;-78
2023/03/27 08:11:40;;;;;;;2.03;1.20;;;7.50;99.90;;;;;;5074701;28;20681;-77
2023/03/27 08:14:08;;;;;;;2.60;1.92;;;7.50;99.80;;;;;;5075186;28;20235;-77
2023/03/27 08:16:36;;;;;;;2.13;1.92;;;7.50;99.50;;;;;;5075017;28;20247;-77
2023/03/27 08:19:06;;;;;;;2.28;1.48;;;7.40;99.20;;;;;;5075433;28;20309;-77
2023/03/27 08:21:33;;;;;;;3.15;1.40;;;7.50;99.40;;;;;;5075822;28;20560;-78
2023/03/27 08:24:03;;;;;;;5.70;1.92;;;7.60;99.30;;;;;;5076275;28;20596;-78
2023/03/27 08:26:31;;;;;;;7.68;2.25;;;7.60;98.90;;;;;;5076120;28;20228;-75
2023/03/27 08:29:00;;;;;;;9.25;2.60;;;7.70;98.80;;;;;;5074464;28;20756;-76
2023/03/27 08:31:29;;;;;;;4.03;1.75;;;7.70;98.60;;;;;;5075336;28;20677;-76
2023/03/27 08:33:58;;;;;;;6.57;2.25;;;7.80;98.20;;;;;;5074741;28;20632;-76
2023/03/27 08:36:26;;;;;;;1.58;1.30;;;7.90;97.40;;;;;;5082999;28;20220;-76
2023/03/27 08:38:54;;;;;;;2.47;1.63;;;7.90;97.20;;;;;;5086940;28;20258;-75
2023/03/27 08:41:27;;;;;;;2.85;1.70;;;7.90;97.20;;;;;;5094986;28;20283;-75
2023/03/27 08:43:57;;;;;;;3.95;1.48;;;8.00;97.30;;;;;;5092240;28;20257;-73
2023/03/27 08:46:32;;;;;;;2.78;1.63;;;8.00;96.70;;;;;;5092691;28;20232;-75
2023/03/27 08:49:08;;;;;;;3.90;1.63;;;8.10;96.30;;;;;;5093632;28;20222;-74
2023/03/27 08:51:40;;;;;;;2.47;1.50;;;8.10;96.00;;;;;;5079485;28;20230;-76
2023/03/27 08:54:09;;;;;;;4.40;1.80;;;8.10;95.50;;;;;;5076143;28;20220;-79
2023/03/27 08:56:37;;;;;;;3.05;1.35;;;8.20;96.10;;;;;;5075011;28;20227;-76
2023/03/27 08:59:06;;;;;;;2.38;1.48;;;8.20;95.50;;;;;;5074206;28;20231;-79
2023/03/27 09:01:39;;;;;;;2.08;1.60;;;8.20;95.60;;;;;;5074895;28;20762;-78
2023/03/27 09:04:18;;;;;;;2.40;1.90;;;8.30;95.60;;;;;;5073964;28;20220;-78
2023/03/27 09:06:52;;;;;;;1.70;1.45;;;8.30;95.30;;;;;;5074531;28;20568;-78
2023/03/27 09:09:32;;;;;;;2.38;1.40;;;8.40;95.20;;;;;;5073892;28;20302;-78
2023/03/27 09:12:04;;;;;;;2.50;1.77;;;8.40;95.20;;;;;;5073777;28;20661;-78
2023/03/27 09:14:35;;;;;;;4.22;1.70;;;8.40;95.00;;;;;;5074594;28;20224;-77
2023/03/27 09:17:12;;;;;;;1.30;1.10;;;8.50;94.80;;;;;;5074359;28;20236;-78
2023/03/27 09:19:47;;;;;;;4.40;3.67;;;8.60;94.60;;;;;;5074390;28;20219;-78
2023/03/27 09:22:18;;;;;;;8.25;3.22;;;8.60;94.40;;;;;;5073668;28;20224;-78
2023/03/27 09:24:49;;;;;;;6.63;2.10;;;8.60;93.80;;;;;;5074509;28;20228;-77
2023/03/27 09:27:21;;;;;;;4.00;2.10;;;8.60;93.90;;;;;;5073692;28;20243;-78
2023/03/27 09:30:01;;;;;;;2.75;2.25;;;8.70;94.10;;;;;;5073636;28;20224;-78
2023/03/27 09:32:33;;;;;;;4.18;2.10;;;8.70;94.10;;;;;;5074040;28;20227;-78
2023/03/27 09:35:03;;;;;;;2.72;1.52;;;8.80;93.10;;;;;;5073864;28;20302;-78
2023/03/27 09:37:30;;;;;;;1.60;1.20;;;8.80;93.10;;;;;;5073692;28;21142;-78
2023/03/27 09:40:00;;;;;;;7.78;5.00;;;8.80;92.80;;;;;;5074084;28;20220;-77
2023/03/27 09:42:33;;;;;;;3.90;1.95;;;8.80;92.00;;;;;;5073336;28;20874;-76
2023/03/27 09:45:05;;;;;;;4.60;1.98;;;8.90;92.00;;;;;;5072991;28;20243;-76
2023/03/27 09:47:41;;;;;;;2.67;1.83;;;8.90;92.00;;;;;;5072656;28;20358;-77
2023/03/27 09:50:24;;;;;;;2.35;1.80;;;9.00;92.20;;;;;;5069859;28;20302;-78
2023/03/27 09:53:11;;;;;;;3.53;1.88;;;9.00;91.60;;;;;;5079893;28;20561;-78
2023/03/27 09:55:51;;;;;;;3.42;1.98;;;9.00;91.30;;;;;;5073118;28;20672;-78
2023/03/27 09:58:33;;;;;;;5.15;1.75;;;9.10;90.90;;;;;;5073325;28;20299;-78
2023/03/27 10:01:14;;;;;;;4.30;2.10;;;9.10;90.10;;;;;;5073039;28;20231;-78
2023/03/27 10:04:11;;;;;;;5.55;1.95;;;9.00;87.70;;;;;;5072738;28;20719;-78
2023/03/27 10:06:44;;;;;;;5.47;4.30;;;9.00;87.10;;;;;;5064593;28;20239;-78
2023/03/27 10:09:22;;;;;;;5.63;4.72;;;9.00;87.50;;;;;;5073184;28;20262;-78
2023/03/27 10:11:50;;;;;;;5.22;2.63;;;9.10;87.20;;;;;;5072759;28;20226;-76
2023/03/27 10:14:21;;;;;;;4.25;3.55;;;9.10;85.80;;;;;;5073859;28;20281;-78
2023/03/27 10:16:48;;;;;;;5.47;5.00;;;9.20;85.80;;;;;;5073310;28;20226;-76
2023/03/27 10:19:23;;;;;;;2.47;2.20;;;9.20;85.80;;;;;;5072351;28;20669;-76
2023/03/27 10:21:57;;;;;;;2.45;1.67;;;9.20;86.60;;;;;;5072874;28;20311;-75
2023/03/27 10:24:32;;;;;;;1.95;1.70;;;9.20;86.80;;;;;;5073444;28;20311;-79
2023/03/27 10:27:00;;;;;;;2.38;1.38;;;9.10;85.80;;;;;;5072636;28;20302;-77
2023/03/27 10:29:30;;;;;;;2.25;1.77;;;9.10;85.80;;;;;;5073590;28;20251;-79
2023/03/27 10:32:00;;;;;;;3.30;1.60;;;9.20;85.90;;;;;;5072950;28;20285;-79
2023/03/27 10:34:31;;;;;;;3.78;1.60;;;9.30;85.70;;;;;;5074000;28;20600;-78
2023/03/27 10:37:02;;;;;;;1.42;1.25;;;9.30;84.60;;;;;;5073283;28;20216;-79
2023/03/27 10:39:34;;;;;;;3.10;1.40;;;9.40;83.10;;;;;;5073280;28;20239;-79
2023/03/27 10:42:06;;;;;;;2.20;1.30;;;9.50;81.50;;;;;;5073048;28;20227;-78
2023/03/27 10:44:36;;;;;;;2.00;1.30;;;9.60;81.60;;;;;;5073473;28;20230;-78
2023/03/27 10:47:04;;;;;;;2.65;1.60;;;9.60;81.30;;;;;;5072055;28;20293;-77
2023/03/27 10:49:41;;;;;;;1.65;1.40;;;9.60;80.40;;;;;;5072654;28;20235;-77
2023/03/27 10:52:19;;;;;;;2.28;1.50;;;9.60;80.20;;;;;;5072263;28;20778;-77
2023/03/27 10:54:55;;;;;;;1.70;1.30;;;9.60;80.80;;;;;;5071628;28;20231;-77
2023/03/27 10:57:26;;;;;;;2.03;1.70;;;9.60;81.20;;;;;;5074071;28;20211;-76
2023/03/27 10:59:59;;;;;;;1.95;1.40;;;9.60;82.20;;;;;;5073506;28;20254;-76
2023/03/27 11:02:32;;;;;;;1.88;1.35;;;9.60;79.90;;;;;;5072546;28;20285;-76
2023/03/27 11:05:03;;;;;;;1.80;1.23;;;9.60;78.90;;;;;;5071740;28;20669;-76
2023/03/27 11:07:36;;;;;;;3.47;1.60;;;9.60;79.30;;;;;;5071897;28;20228;-76
2023/03/27 11:10:12;;;;;;;2.47;1.35;;;9.70;78.60;;;;;;5071714;28;20219;-76
2023/03/27 11:12:42;;;;;;;2.38;1.30;;;9.80;77.00;;;;;;5072631;28;20223;-76
2023/03/27 11:15:14;;;;;;;2.20;1.40;;;9.80;76.70;;;;;;5071923;28;20288;-75
2023/03/27 11:17:46;;;;;;;2.20;1.38;;;9.80;73.20;;;;;;5071997;28;20247;-75
2023/03/27 11:20:21;;;;;;;2.20;1.88;;;9.90;72.50;;;;;;5072217;28;20239;-75
2023/03/27 11:22:56;;;;;;;3.22;1.58;;;9.90;71.90;;;;;;5072098;28;20220;-75
2023/03/27 11:25:32;;;;;;;2.55;1.23;;;9.90;72.30;;;;;;5072779;28;20212;-75
2023/03/27 11:28:09;;;;;;;2.55;1.10;;;10.00;71.80;;;;;;5071646;28;20223;-75
2023/03/27 11:30:43;;;;;;;2.65;1.48;;;10.10;72.10;;;;;;5071361;28;20325;-75
2023/03/27 11:33:26;;;;;;;1.38;1.27;;;10.10;70.90;;;;;;5072226;28;20224;-76
2023/03/27 11:36:01;;;;;;;1.10;1.00;;;10.00;71.60;;;;;;5071040;28;20251;-75
2023/03/27 11:38:33;;;;;;;1.45;1.10;;;10.00;71.00;;;;;;5071861;28;20220;-76
2023/03/27 11:41:00;;;;;;;1.30;1.10;;;10.00;72.00;;;;;;5071448;28;20216;-76
2023/03/27 11:43:27;;;;;;;2.55;1.20;;;10.10;71.80;;;;;;5071754;28;20224;-76
2023/03/27 11:46:04;;;;;;;1.20;1.10;;;10.10;70.40;;;;;;5071557;28;20232;-75
2023/03/27 11:48:57;;;;;;;3.25;2.40;;;10.10;70.40;;;;;;5071534;28;20539;-75
2023/03/27 11:51:36;;;;;;;2.65;2.13;;;10.00;68.30;;;;;;5051536;28;20216;-76
2023/03/27 11:54:15;;;;;;;9.05;5.18;;;10.10;68.20;;;;;;5059968;28;20718;-75
2023/03/27 11:56:51;;;;;;;6.00;2.08;;;10.00;68.90;;;;;;5059662;28;20220;-75
2023/03/27 11:59:47;;;;;;;2.78;1.20;;;10.00;69.10;;;;;;5059565;28;20238;-77
2023/03/27 12:02:38;;;;;;;1.73;1.30;;;10.00;69.00;;;;;;5061509;28;20226;-77
2023/03/27 12:05:20;;;;;;;1.55;1.42;;;10.00;69.60;;;;;;5071101;28;20254;-77
2023/03/27 12:08:00;;;;;;;3.70;1.77;;;9.90;71.00;;;;;;5073654;28;20240;-78
2023/03/27 12:10:33;;;;;;;2.35;1.40;;;9.90;71.00;;;;;;5075243;28;20215;-75
2023/03/27 12:13:37;;;;;;;3.25;1.65;;;9.90;71.50;;;;;;5075174;28;20227;-76
2023/03/27 12:16:31;;;;;;;7.72;2.30;;;10.00;70.00;;;;;;5075010;28;20239;-78
2023/03/27 12:19:07;;;;;;;2.90;2.58;;;9.90;70.50;;;;;;5079855;28;20228;-78
2023/03/27 12:21:47;;;;;;;4.63;1.55;;;9.90;70.10;;;;;;5094223;28;20220;-78
2023/03/27 12:24:31;;;;;;;2.33;1.60;;;9.90;70.80;;;;;;5095076;28;20246;-78
2023/03/27 12:27:44;;;;;;;1.60;1.40;;;9.90;71.10;;;;;;5094686;28;20234;-78
2023/03/27 12:30:26;;;;;;;5.97;2.22;;;9.90;71.30;;;;;;5091839;28;20293;-76
2023/03/27 12:33:24;;;;;;;2.50;1.95;;;9.90;72.00;;;;;;5092130;28;20249;-76
2023/03/27 12:35:54;;;;;;;2.05;1.60;;;9.90;71.60;;;;;;5073968;28;20255;-77
2023/03/27 12:38:27;;;;;;;3.78;1.92;;;9.90;72.00;;;;;;5077291;28;20232;-75
2023/03/27 12:41:04;;;;;;;2.15;1.50;;;10.00;70.00;;;;;;5076489;28;20224;-76
2023/03/27 12:43:38;;;;;;;3.58;1.50;;;10.00;68.90;;;;;;5078570;28;20243;-76
2023/03/27 12:46:20;;;;;;;2.60;1.40;;;10.10;69.00;;;;;;5076316;28;20223;-76
2023/03/27 12:48:56;;;;;;;4.05;1.27;;;10.20;69.40;;;;;;5077874;28;20227;-76
2023/03/27 12:51:42;;;;;;;3.05;1.08;;;10.20;70.50;;;;;;5077134;28;20239;-75
2023/03/27 12:54:24;;;;;;;2.58;1.33;;;10.20;70.70;;;;;;5076529;28;20234;-76
2023/03/27 12:56:58;;;;;;;1.42;0.90;;;10.30;71.30;;;;;;5078249;28;20223;-76
2023/03/27 12:59:29;;;;;;;1.80;1.20;;;10.30;70.70;;;;;;5080437;28;21208;-76
2023/03/27 13:02:39;;;;;;;2.05;1.10;;;10.30;70.60;;;;;;5089882;28;20598;-76
2023/03/27 13:05:21;;;;;;;3.95;1.35;;;10.30;70.20;;;;;;5080382;28;20227;-76
2023/03/27 13:07:56;;;;;;;1.48;1.38;;;10.20;69.80;;;;;;5089650;28;20236;-77
2023/03/27 13:10:39;;;;;;;1.20;1.00;;;10.10;71.30;;;;;;5091127;28;20222;-76
2023/03/27 13:13:38;;;;;;;1.60;1.50;;;10.10;73.70;;;;;;5089968;28;20220;-76
2023/03/27 13:16:32;;;;;;;2.17;1.35;;;10.00;75.40;;;;;;5066940;28;20260;-76
2023/03/27 13:19:13;;;;;;;1.65;1.40;;;9.90;77.30;;;;;;5098190;28;20227;-77
2023/03/27 13:21:49;;;;;;;2.33;1.52;;;9.90;78.20;;;;;;5090769;28;20228;-76
2023/03/27 13:24:31;;;;;;;1.58;1.48;;;9.80;78.90;;;;;;5090459;28;20257;-75